createdAt,value
2022-08-07T00:02:36.831Z,12.00
2022-08-07T00:05:03.996Z,11.85
2022-08-07T00:07:40.325Z,12.03
2022-08-07T00:10:25.951Z,12.00
2022-08-07T00:13:00.306Z,15.93
2022-08-07T00:15:37.863Z,13.82
2022-08-07T00:18:18.905Z,11.60
2022-08-07T00:20:49.311Z,14.10
2022-08-07T00:23:17.848Z,11.45
2022-08-07T00:25:59.050Z,14.90
2022-08-07T00:28:33.599Z,11.73
2022-08-07T00:31:06.169Z,13.27
2022-08-07T00:33:42.163Z,13.57
2022-08-07T00:36:10.863Z,14.35
2022-08-07T00:38:40.374Z,14.32
2022-08-07T00:41:10.059Z,12.85
2022-08-07T00:44:00.598Z,16.13
2022-08-07T00:46:33.177Z,14.63
2022-08-07T00:49:09.721Z,14.23
2022-08-07T00:51:58.267Z,12.63
2022-08-07T00:54:27.420Z,19.35
2022-08-07T00:56:57.891Z,14.38
2022-08-07T00:59:35.281Z,16.40
2022-08-07T01:02:08.794Z,12.88
2022-08-07T01:04:43.929Z,15.40
2022-08-07T01:07:13.117Z,14.07
2022-08-07T01:10:06.474Z,15.90
2022-08-07T01:12:31.115Z,14.77
2022-08-07T01:15:04.018Z,16.67
2022-08-07T01:17:33.942Z,14.70
2022-08-07T01:20:08.117Z,15.75
2022-08-07T01:22:46.481Z,15.27
2022-08-07T01:25:40.245Z,16.63
2022-08-07T01:28:08.422Z,16.48
2022-08-07T01:30:41.131Z,18.45
2022-08-07T01:33:11.786Z,16.55
2022-08-07T01:35:53.082Z,19.40
2022-08-07T01:38:26.100Z,16.07
2022-08-07T01:41:04.374Z,14.80
2022-08-07T01:43:34.526Z,17.55
2022-08-07T01:46:08.062Z,16.67
2022-08-07T01:48:46.434Z,16.80
2022-08-07T01:51:58.768Z,18.47
2022-08-07T01:54:21.971Z,19.38
2022-08-07T01:57:08.388Z,16.13
2022-08-07T01:59:45.273Z,15.15
2022-08-07T02:03:11.485Z,15.77
2022-08-07T02:05:16.034Z,15.83
2022-08-07T02:08:08.233Z,14.18
2022-08-07T02:10:43.239Z,14.85
2022-08-07T02:13:18.182Z,14.32
2022-08-07T02:15:54.061Z,12.20
2022-08-07T02:18:23.144Z,14.70
2022-08-07T02:20:57.446Z,14.27
2022-08-07T02:23:28.100Z,14.63
2022-08-07T02:26:31.115Z,14.05
2022-08-07T02:28:52.608Z,12.88
2022-08-07T02:31:32.702Z,12.53
2022-08-07T02:34:11.261Z,12.02
2022-08-07T02:36:51.441Z,12.77
2022-08-07T02:39:43.403Z,10.63
2022-08-07T02:42:16.298Z,11.13
2022-08-07T02:44:51.941Z,12.37
2022-08-07T02:47:24.586Z,11.85
2022-08-07T02:50:00.524Z,13.38
2022-08-07T02:52:37.304Z,11.68
2022-08-07T02:55:27.265Z,11.13
2022-08-07T02:58:04.079Z,11.43
2022-08-07T03:00:36.118Z,11.00
2022-08-07T03:03:13.571Z,11.68
2022-08-07T03:05:46.819Z,10.73
2022-08-07T03:08:17.852Z,14.02
2022-08-07T03:10:57.479Z,13.33
2022-08-07T03:13:39.303Z,12.75
2022-08-07T03:16:28.003Z,11.50
2022-08-07T03:19:06.717Z,13.30
2022-08-07T03:21:37.614Z,12.13
2022-08-07T03:24:20.625Z,13.30
2022-08-07T03:27:01.584Z,10.57
2022-08-07T03:29:49.551Z,14.38
2022-08-07T03:32:29.337Z,10.88
2022-08-07T03:35:17.854Z,12.70
2022-08-07T03:37:55.240Z,13.80
2022-08-07T03:40:36.090Z,12.63
2022-08-07T03:43:10.122Z,11.70
2022-08-07T03:45:47.921Z,14.05
2022-08-07T03:48:20.938Z,13.75
2022-08-07T03:50:52.051Z,12.30
2022-08-07T03:54:00.812Z,12.65
2022-08-07T03:56:32.773Z,16.70
2022-08-07T03:59:10.157Z,12.10
2022-08-07T04:01:47.159Z,11.52
2022-08-07T04:04:19.140Z,12.57
2022-08-07T04:06:53.196Z,11.63
2022-08-07T04:09:25.190Z,12.10
2022-08-07T04:12:25.062Z,11.82
2022-08-07T04:15:00.158Z,11.10
2022-08-07T04:18:11.276Z,12.93
2022-08-07T04:20:22.059Z,11.85
2022-08-07T04:23:01.509Z,11.80
2022-08-07T04:25:35.862Z,12.48
2022-08-07T04:28:08.222Z,11.07
2022-08-07T04:30:43.419Z,11.07
2022-08-07T04:33:19.255Z,11.40
2022-08-07T04:35:51.230Z,11.27
2022-08-07T04:38:27.130Z,9.77
2022-08-07T04:40:56.657Z,11.48
2022-08-07T04:44:12.928Z,11.07
2022-08-07T04:46:59.293Z,10.80
2022-08-07T04:49:40.739Z,11.43
2022-08-07T04:52:25.219Z,10.88
2022-08-07T04:55:15.502Z,11.75
2022-08-07T04:58:16.568Z,13.80
2022-08-07T05:00:53.013Z,11.75
2022-08-07T05:04:00.185Z,13.05
2022-08-07T05:06:20.533Z,10.52
2022-08-07T05:09:06.287Z,10.80
2022-08-07T05:11:58.229Z,12.40
2022-08-07T05:14:53.825Z,11.70
2022-08-07T05:17:50.145Z,12.00
2022-08-07T05:20:24.809Z,8.60
2022-08-07T05:23:02.632Z,7.93
2022-08-07T05:26:10.418Z,10.43
2022-08-07T05:28:26.693Z,10.57
2022-08-07T05:30:58.201Z,8.98
2022-08-07T05:33:31.371Z,8.20
2022-08-07T05:36:05.583Z,7.85
2022-08-07T05:39:00.908Z,8.40
2022-08-07T05:41:25.912Z,6.80
2022-08-07T05:45:14.261Z,7.75
2022-08-07T05:48:01.952Z,8.05
2022-08-07T05:50:39.588Z,8.30
2022-08-07T05:54:12.565Z,6.13
2022-08-07T05:56:06.938Z,6.72
2022-08-07T05:58:49.223Z,6.75
2022-08-07T06:01:24.632Z,7.72
2022-08-07T06:04:00.858Z,6.55
2022-08-07T06:06:36.414Z,7.20
2022-08-07T06:09:09.115Z,6.82
2022-08-07T06:11:46.846Z,6.47
2022-08-07T06:14:20.816Z,6.88
2022-08-07T06:16:55.794Z,6.85
2022-08-07T06:19:58.396Z,7.10
2022-08-07T06:22:23.861Z,6.53
2022-08-07T06:25:03.176Z,8.02
2022-08-07T06:28:00.372Z,6.07
2022-08-07T06:30:32.038Z,6.32
2022-08-07T06:33:15.682Z,8.10
2022-08-07T06:35:48.048Z,5.22
2022-08-07T06:38:35.119Z,8.43
2022-08-07T06:41:09.768Z,6.00
2022-08-07T06:43:46.513Z,6.30
2022-08-07T06:46:31.405Z,6.10
2022-08-07T06:49:03.959Z,6.28
2022-08-07T06:51:36.175Z,9.13
2022-08-07T06:55:33.099Z,5.25
2022-08-07T06:57:09.674Z,5.57
2022-08-07T07:00:17.621Z,7.13
2022-08-07T07:02:53.229Z,5.10
2022-08-07T07:06:03.616Z,6.90
2022-08-07T07:08:18.932Z,5.20
2022-08-07T07:10:56.554Z,5.28
2022-08-07T07:13:41.413Z,5.07
2022-08-07T07:16:27.494Z,5.65
2022-08-07T07:19:41.046Z,5.18
2022-08-07T07:22:04.722Z,5.43
2022-08-07T07:24:56.856Z,5.05
2022-08-07T07:27:35.826Z,5.23
2022-08-07T07:30:32.529Z,5.60
2022-08-07T07:33:09.049Z,4.60
2022-08-07T07:35:54.417Z,5.70
2022-08-07T07:38:34.857Z,7.97
2022-08-07T07:41:08.900Z,7.57
2022-08-07T07:44:14.669Z,4.72
2022-08-07T07:46:38.538Z,5.68
2022-08-07T07:50:33.756Z,8.43
2022-08-07T07:52:13.536Z,8.60
2022-08-07T07:54:51.109Z,12.03
2022-08-07T07:57:43.836Z,8.85
2022-08-07T08:00:20.927Z,20.00
2022-08-07T08:03:05.399Z,7.30
2022-08-07T08:05:42.860Z,11.07
2022-08-07T08:08:34.720Z,9.60
2022-08-07T08:11:08.378Z,6.50
2022-08-07T08:13:54.729Z,7.03
2022-08-07T08:16:35.550Z,6.00
2022-08-07T08:19:09.693Z,8.45
2022-08-07T08:22:19.514Z,6.50
2022-08-07T08:25:25.034Z,8.20
2022-08-07T08:28:03.988Z,6.10
2022-08-07T08:30:37.403Z,6.53
2022-08-07T08:33:16.316Z,5.90
2022-08-07T08:35:50.679Z,4.60
2022-08-07T08:38:29.212Z,6.10
2022-08-07T08:41:05.110Z,6.93
2022-08-07T08:43:42.942Z,5.30
2022-08-07T08:46:38.446Z,6.40
2022-08-07T08:49:16.379Z,8.90
2022-08-07T08:52:14.448Z,6.90
2022-08-07T08:54:48.700Z,6.93
2022-08-07T08:57:27.866Z,5.95
2022-08-07T09:00:03.299Z,5.47
2022-08-07T09:02:41.868Z,5.00
2022-08-07T09:05:37.244Z,5.10
2022-08-07T09:12:54.463Z,6.78
2022-08-07T09:16:24.320Z,4.45
2022-08-07T09:24:30.449Z,4.82
2022-08-07T09:26:31.012Z,4.32
2022-08-07T09:30:01.165Z,4.85
2022-08-07T09:32:21.001Z,4.35
2022-08-07T09:34:59.887Z,5.57
2022-08-07T09:37:48.188Z,5.07
2022-08-07T09:40:29.775Z,6.57
2022-08-07T09:43:08.828Z,5.07
2022-08-07T09:47:42.499Z,5.45
2022-08-07T09:49:59.636Z,4.90
2022-08-07T09:52:15.852Z,4.57
2022-08-07T09:54:59.151Z,3.65
2022-08-07T09:58:04.584Z,4.00
2022-08-07T10:00:45.990Z,4.82
2022-08-07T10:04:04.943Z,6.13
2022-08-07T10:07:00.164Z,3.70
2022-08-07T10:10:01.036Z,4.63
2022-08-07T10:12:53.636Z,5.10
2022-08-07T10:15:47.364Z,4.32
2022-08-07T10:18:48.150Z,4.30
2022-08-07T10:22:12.481Z,6.00
2022-08-07T10:24:39.605Z,5.68
2022-08-07T10:27:21.383Z,6.13
2022-08-07T10:30:07.111Z,3.85
2022-08-07T10:33:13.110Z,6.23
2022-08-07T10:36:11.468Z,5.47
2022-08-07T10:38:51.537Z,6.00
2022-08-07T10:41:51.452Z,4.68
2022-08-07T10:44:28.777Z,4.70
2022-08-07T10:47:16.788Z,4.10
2022-08-07T10:49:51.888Z,4.93
2022-08-07T10:52:33.553Z,5.75
2022-08-07T10:55:27.073Z,5.97
2022-08-07T10:58:11.001Z,4.70
2022-08-07T11:00:56.283Z,5.53
2022-08-07T11:03:37.693Z,4.15
2022-08-07T11:06:26.861Z,4.68
2022-08-07T11:09:02.735Z,3.65
2022-08-07T11:11:37.695Z,5.78
2022-08-07T11:14:46.080Z,4.70
2022-08-07T11:17:07.419Z,3.65
2022-08-07T11:19:44.831Z,4.03
2022-08-07T11:22:32.404Z,4.18
2022-08-07T11:25:18.183Z,3.92
2022-08-07T11:28:02.356Z,4.97
2022-08-07T11:30:42.760Z,4.90
2022-08-07T11:33:58.483Z,4.95
2022-08-07T11:36:30.907Z,4.82
2022-08-07T11:39:10.721Z,3.97
2022-08-07T11:42:01.678Z,4.67
2022-08-07T11:44:52.515Z,4.25
2022-08-07T11:47:58.948Z,5.40
2022-08-07T11:50:57.431Z,4.30
2022-08-07T11:53:38.064Z,3.38
2022-08-07T11:56:29.118Z,3.73
2022-08-07T12:00:10.682Z,4.53
2022-08-07T12:02:20.603Z,4.15
2022-08-07T12:05:03.123Z,6.68
2022-08-07T12:07:42.499Z,3.42
2022-08-07T12:10:18.673Z,4.60
2022-08-07T12:12:53.598Z,3.85
2022-08-07T12:15:46.454Z,5.28
2022-08-07T12:18:29.633Z,6.28
2022-08-07T12:21:11.034Z,4.65
2022-08-07T12:24:06.905Z,4.03
2022-08-07T12:26:46.605Z,3.72
2022-08-07T12:29:38.003Z,5.05
2022-08-07T12:32:16.001Z,4.57
2022-08-07T12:34:55.698Z,3.67
2022-08-07T12:38:09.600Z,4.27
2022-08-07T12:40:47.941Z,7.10
2022-08-07T12:44:02.377Z,7.50
2022-08-07T12:46:26.339Z,4.90
2022-08-07T12:50:39.261Z,4.63
2022-08-07T12:53:18.150Z,5.53
2022-08-07T12:56:02.492Z,3.70
2022-08-07T12:58:39.221Z,4.20
2022-08-07T13:01:14.556Z,4.72
2022-08-07T13:04:04.703Z,4.72
2022-08-07T13:06:54.481Z,3.57
2022-08-07T13:10:28.699Z,3.97
2022-08-07T13:13:47.959Z,5.38
2022-08-07T13:16:23.708Z,4.53
2022-08-07T13:19:03.655Z,4.68
2022-08-07T13:21:50.488Z,3.63
2022-08-07T13:24:29.325Z,5.65
2022-08-07T13:27:10.421Z,4.65
2022-08-07T13:29:57.963Z,4.32
2022-08-07T13:32:37.378Z,3.80
2022-08-07T13:35:12.593Z,3.70
2022-08-07T13:37:58.616Z,4.72
2022-08-07T13:40:35.322Z,4.57
2022-08-07T13:43:16.215Z,4.43
2022-08-07T13:46:11.338Z,5.53
2022-08-07T13:48:39.419Z,3.40
2022-08-07T13:51:27.737Z,3.25
2022-08-07T13:54:03.314Z,4.05
2022-08-07T13:56:35.790Z,4.10
2022-08-07T13:59:18.438Z,3.97
2022-08-07T14:02:04.416Z,3.93
2022-08-07T14:07:33.662Z,4.43
2022-08-07T14:10:21.735Z,3.80
2022-08-07T14:12:56.385Z,4.03
2022-08-07T14:15:35.054Z,4.03
2022-08-07T14:18:15.711Z,3.30
2022-08-07T14:21:08.265Z,4.28
2022-08-07T14:24:00.185Z,4.32
2022-08-07T14:26:36.055Z,3.60
2022-08-07T14:30:04.782Z,4.70
2022-08-07T14:31:57.780Z,4.53
2022-08-07T14:34:29.884Z,5.75
2022-08-07T14:37:01.986Z,6.13
2022-08-07T14:40:18.232Z,3.72
2022-08-07T14:42:27.595Z,5.57
2022-08-07T14:47:58.975Z,4.70
2022-08-07T14:50:29.232Z,7.43
2022-08-07T14:53:09.863Z,3.88
2022-08-07T14:55:55.867Z,4.27
2022-08-07T14:58:32.377Z,4.03
2022-08-07T15:01:21.996Z,4.03
2022-08-07T15:03:53.477Z,3.90
2022-08-07T15:06:25.881Z,4.10
2022-08-07T15:11:53.653Z,3.13
2022-08-07T15:14:30.532Z,3.70
2022-08-07T15:17:02.619Z,6.07
2022-08-07T15:20:16.158Z,4.35
2022-08-07T15:22:33.492Z,4.30
2022-08-07T15:25:17.318Z,4.00
2022-08-07T15:31:04.517Z,3.88
2022-08-07T15:33:33.962Z,4.90
2022-08-07T15:36:08.633Z,6.53
2022-08-07T15:38:51.345Z,4.90
2022-08-07T15:42:46.029Z,3.25
2022-08-07T15:44:24.048Z,5.30
2022-08-07T15:47:03.548Z,4.22
2022-08-07T15:50:05.555Z,6.23
2022-08-07T15:52:30.215Z,4.70
2022-08-07T15:55:02.834Z,6.63
2022-08-07T15:57:47.603Z,4.53
2022-08-07T16:00:32.157Z,6.57
2022-08-07T16:03:05.759Z,4.60
2022-08-07T16:05:36.182Z,4.03
2022-08-07T16:08:33.394Z,7.32
2022-08-07T16:11:04.566Z,4.38
2022-08-07T16:14:03.252Z,4.03
2022-08-07T16:16:49.251Z,4.43
2022-08-07T16:20:00.929Z,3.25
2022-08-07T16:22:55.044Z,4.25
2022-08-07T16:25:54.828Z,6.65
2022-08-07T16:30:08.573Z,4.57
2022-08-07T16:31:57.960Z,4.13
2022-08-07T16:34:45.385Z,4.30
2022-08-07T16:38:04.443Z,5.47
2022-08-07T16:41:13.969Z,4.72
2022-08-07T16:44:02.703Z,3.72
2022-08-07T16:47:06.064Z,3.77
2022-08-07T16:50:29.244Z,3.95
2022-08-07T16:53:57.161Z,4.10
2022-08-07T16:56:05.950Z,5.97
2022-08-07T16:59:11.235Z,4.07
2022-08-07T17:01:41.330Z,4.30
2022-08-07T17:04:24.533Z,6.95
2022-08-07T17:07:02.872Z,5.25
2022-08-07T17:10:06.791Z,4.75
2022-08-07T17:12:45.193Z,5.07
2022-08-07T17:15:21.897Z,3.70
2022-08-07T17:18:29.397Z,3.78
2022-08-07T17:20:59.225Z,4.97
2022-08-07T17:27:19.998Z,3.95
2022-08-07T17:30:19.785Z,5.43
2022-08-07T17:34:08.989Z,5.03
2022-08-07T17:36:13.391Z,4.80
2022-08-07T17:38:58.905Z,3.20
2022-08-07T17:42:04.761Z,4.97
2022-08-07T17:44:45.545Z,5.27
2022-08-07T17:47:38.476Z,6.22
2022-08-07T17:50:30.479Z,3.67
2022-08-07T17:53:59.495Z,4.60
2022-08-07T17:56:15.398Z,5.47
2022-08-07T17:59:05.789Z,5.63
2022-08-07T18:01:49.612Z,5.07
2022-08-07T18:04:30.839Z,6.95
2022-08-07T18:07:19.991Z,4.57
2022-08-07T18:10:06.691Z,5.93
2022-08-07T18:12:59.313Z,5.00
2022-08-07T18:15:33.545Z,5.53
2022-08-07T18:18:46.955Z,4.93
2022-08-07T18:21:53.399Z,3.65
2022-08-07T18:24:28.364Z,4.82
2022-08-07T18:27:20.934Z,5.33
2022-08-07T18:30:08.443Z,4.78
2022-08-07T18:33:30.151Z,7.63
2022-08-07T18:36:10.408Z,6.10
2022-08-07T18:38:57.601Z,5.03
2022-08-07T18:41:53.707Z,4.80
2022-08-07T18:45:43.639Z,5.53
2022-08-07T18:48:04.040Z,10.95
2022-08-07T18:50:55.684Z,23.70
2022-08-07T18:53:39.515Z,9.73
2022-08-07T18:56:16.427Z,8.50
2022-08-07T18:58:58.995Z,6.07
2022-08-07T19:02:19.787Z,5.18
2022-08-07T19:04:57.855Z,6.90
2022-08-07T19:07:37.422Z,7.00
2022-08-07T19:10:31.470Z,5.10
2022-08-07T19:13:21.588Z,6.25
2022-08-07T19:17:00.526Z,4.90
2022-08-07T19:19:13.251Z,9.30
2022-08-07T19:21:56.270Z,4.95
2022-08-07T19:24:43.615Z,7.37
2022-08-07T19:30:54.165Z,6.68
2022-08-07T19:31:01.227Z,5.57
2022-08-07T19:33:33.466Z,4.95
2022-08-07T19:36:05.277Z,5.80
2022-08-07T19:38:53.217Z,5.43
2022-08-07T19:41:44.611Z,5.40
2022-08-07T19:44:25.522Z,5.45
2022-08-07T19:47:11.610Z,5.05
2022-08-07T19:49:57.679Z,4.82
2022-08-07T19:52:31.920Z,5.77
2022-08-07T19:55:02.828Z,5.80
2022-08-07T19:58:00.063Z,27.75
2022-08-07T20:00:34.691Z,29.85
2022-08-07T20:03:35.134Z,54.90
2022-08-07T20:06:04.608Z,10.40
2022-08-07T20:08:36.939Z,25.30
2022-08-07T20:11:12.125Z,36.97
2022-08-07T20:13:55.191Z,55.35
2022-08-07T20:16:34.954Z,13.52
2022-08-07T20:19:10.653Z,8.97
2022-08-07T20:21:48.502Z,13.43
2022-08-07T20:24:24.141Z,74.60
2022-08-07T20:27:06.015Z,27.35
2022-08-07T20:29:47.900Z,40.40
2022-08-07T20:32:25.486Z,10.33
2022-08-07T20:35:20.548Z,7.68
2022-08-07T20:37:59.596Z,6.20
2022-08-07T20:40:32.102Z,7.00
2022-08-07T20:43:09.468Z,8.27
2022-08-07T20:46:27.240Z,12.10
2022-08-07T20:48:39.454Z,14.27
2022-08-07T20:51:28.115Z,9.10
2022-08-07T20:54:09.239Z,20.85
2022-08-07T20:56:48.219Z,13.57
2022-08-07T21:00:05.203Z,22.67
2022-08-07T21:02:33.369Z,19.17
2022-08-07T21:05:10.254Z,43.67
2022-08-07T21:07:49.634Z,26.45
2022-08-07T21:10:25.232Z,7.78
2022-08-07T21:13:00.641Z,35.43
2022-08-07T21:15:47.697Z,36.80
2022-08-07T21:18:29.742Z,14.25
2022-08-07T21:21:03.975Z,7.47
2022-08-07T21:23:51.698Z,7.20
2022-08-07T21:26:30.821Z,4.97
2022-08-07T21:29:12.984Z,7.15
2022-08-07T21:32:47.483Z,6.82
2022-08-07T21:34:46.052Z,5.35
2022-08-07T21:37:24.229Z,6.10
2022-08-07T21:40:00.651Z,6.40
2022-08-07T21:42:54.483Z,5.90
2022-08-07T21:46:08.265Z,6.80
2022-08-07T21:48:28.559Z,6.70
2022-08-07T21:51:19.327Z,6.50
2022-08-07T21:53:54.398Z,6.30
2022-08-07T21:56:36.148Z,6.55
2022-08-07T21:59:17.029Z,5.60
2022-08-07T22:02:10.282Z,6.40
2022-08-07T22:04:52.514Z,5.45
2022-08-07T22:07:48.554Z,7.10
2022-08-07T22:10:20.291Z,5.97
2022-08-07T22:12:54.807Z,5.05
2022-08-07T22:16:39.292Z,7.55
2022-08-07T22:18:25.025Z,5.30
2022-08-07T22:20:59.516Z,8.00
2022-08-07T22:23:44.985Z,7.20
2022-08-07T22:26:19.469Z,5.80
2022-08-07T22:28:53.230Z,5.60
2022-08-07T22:31:59.391Z,6.35
2022-08-07T22:34:29.166Z,6.53
2022-08-07T22:37:09.318Z,6.10
2022-08-07T22:39:52.700Z,7.68
2022-08-07T22:42:33.591Z,5.68
2022-08-07T22:45:10.706Z,6.10
2022-08-07T22:48:31.519Z,5.70
2022-08-07T22:51:22.531Z,7.25
2022-08-07T22:54:06.313Z,6.18
2022-08-07T22:56:57.886Z,5.82
2022-08-07T22:59:59.011Z,5.18
2022-08-07T23:02:43.147Z,8.93
2022-08-07T23:06:08.274Z,5.97
2022-08-07T23:10:00.827Z,6.85
2022-08-07T23:11:59.636Z,6.43
2022-08-07T23:14:54.318Z,5.65
2022-08-07T23:17:46.985Z,5.97
2022-08-07T23:20:53.366Z,5.85
2022-08-07T23:24:05.318Z,6.82
2022-08-07T23:26:55.135Z,6.75
2022-08-07T23:30:37.308Z,6.55
2022-08-07T23:34:36.600Z,5.77
2022-08-07T23:35:55.324Z,6.57
2022-08-07T23:38:36.571Z,6.43
2022-08-07T23:41:24.526Z,6.68
2022-08-07T23:44:29.562Z,7.10
2022-08-07T23:47:30.283Z,7.03
2022-08-07T23:50:36.933Z,5.95
2022-08-07T23:53:17.375Z,8.77
2022-08-07T23:55:55.871Z,6.30
2022-08-07T23:58:38.051Z,8.18
